sensor_id;sensor_type;location;lat;lon;timestamp;P1;durP1;ratioP1;P2;durP2;ratioP2
23668;SDS011;12011;47.422;15.018;2022-07-29T00:01:51;7.72;;;7.72;;
23668;SDS011;12011;47.422;15.018;2022-07-29T00:04:24;7.38;;;7.38;;
23668;SDS011;12011;47.422;15.018;2022-07-29T00:06:53;7.82;;;7.82;;
23668;SDS011;12011;47.422;15.018;2022-07-29T00:09:23;7.92;;;7.92;;
23668;SDS011;12011;47.422;15.018;2022-07-29T00:11:52;7.91;;;7.91;;
23668;SDS011;12011;47.422;15.018;2022-07-29T00:14:26;8.09;;;8.09;;
23668;SDS011;12011;47.422;15.018;2022-07-29T00:16:56;8.65;;;8.65;;
23668;SDS011;12011;47.422;15.018;2022-07-29T00:19:28;8.44;;;8.44;;
23668;SDS011;12011;47.422;15.018;2022-07-29T00:21:59;8.29;;;8.29;;
23668;SDS011;12011;47.422;15.018;2022-07-29T00:24:29;7.95;;;7.95;;
23668;SDS011;12011;47.422;15.018;2022-07-29T00:26:58;8.03;;;8.03;;
23668;SDS011;12011;47.422;15.018;2022-07-29T00:29:28;8.25;;;8.25;;
23668;SDS011;12011;47.422;15.018;2022-07-29T00:31:58;8.20;;;8.20;;
23668;SDS011;12011;47.422;15.018;2022-07-29T00:34:30;8.40;;;8.40;;
23668;SDS011;12011;47.422;15.018;2022-07-29T00:37:12;8.43;;;8.43;;
23668;SDS011;12011;47.422;15.018;2022-07-29T00:39:42;8.50;;;8.50;;
23668;SDS011;12011;47.422;15.018;2022-07-29T00:42:11;8.35;;;8.35;;
23668;SDS011;12011;47.422;15.018;2022-07-29T00:44:41;7.98;;;7.98;;
23668;SDS011;12011;47.422;15.018;2022-07-29T00:47:11;8.04;;;8.04;;
23668;SDS011;12011;47.422;15.018;2022-07-29T00:49:44;8.66;;;8.66;;
23668;SDS011;12011;47.422;15.018;2022-07-29T00:52:13;8.44;;;8.44;;
23668;SDS011;12011;47.422;15.018;2022-07-29T00:54:43;8.41;;;8.41;;
23668;SDS011;12011;47.422;15.018;2022-07-29T00:57:13;8.36;;;8.36;;
23668;SDS011;12011;47.422;15.018;2022-07-29T00:59:43;8.02;;;8.02;;
23668;SDS011;12011;47.422;15.018;2022-07-29T01:02:13;8.70;;;8.70;;
23668;SDS011;12011;47.422;15.018;2022-07-29T01:04:45;8.20;;;8.20;;
23668;SDS011;12011;47.422;15.018;2022-07-29T01:07:14;8.34;;;8.34;;
23668;SDS011;12011;47.422;15.018;2022-07-29T01:09:45;8.46;;;8.46;;
23668;SDS011;12011;47.422;15.018;2022-07-29T01:12:17;8.51;;;8.51;;
23668;SDS011;12011;47.422;15.018;2022-07-29T01:14:53;8.67;;;8.67;;
23668;SDS011;12011;47.422;15.018;2022-07-29T01:17:26;8.71;;;8.71;;
23668;SDS011;12011;47.422;15.018;2022-07-29T01:20:06;8.27;;;8.27;;
23668;SDS011;12011;47.422;15.018;2022-07-29T01:22:53;8.64;;;8.64;;
23668;SDS011;12011;47.422;15.018;2022-07-29T01:28:52;8.22;;;8.22;;
23668;SDS011;12011;47.422;15.018;2022-07-29T01:31:38;8.47;;;8.47;;
23668;SDS011;12011;47.422;15.018;2022-07-29T01:34:18;8.36;;;8.36;;
23668;SDS011;12011;47.422;15.018;2022-07-29T01:36:57;8.67;;;8.67;;
23668;SDS011;12011;47.422;15.018;2022-07-29T01:39:37;8.64;;;8.64;;
23668;SDS011;12011;47.422;15.018;2022-07-29T01:42:10;8.71;;;8.71;;
23668;SDS011;12011;47.422;15.018;2022-07-29T01:44:50;8.54;;;8.54;;
23668;SDS011;12011;47.422;15.018;2022-07-29T01:47:31;8.59;;;8.59;;
23668;SDS011;12011;47.422;15.018;2022-07-29T01:50:08;8.51;;;8.51;;
23668;SDS011;12011;47.422;15.018;2022-07-29T01:52:45;8.58;;;8.58;;
23668;SDS011;12011;47.422;15.018;2022-07-29T01:55:22;8.52;;;8.52;;
23668;SDS011;12011;47.422;15.018;2022-07-29T01:57:59;8.43;;;8.43;;
23668;SDS011;12011;47.422;15.018;2022-07-29T02:00:36;8.54;;;8.54;;
23668;SDS011;12011;47.422;15.018;2022-07-29T02:03:09;8.15;;;8.15;;
23668;SDS011;12011;47.422;15.018;2022-07-29T02:05:42;8.58;;;8.58;;
23668;SDS011;12011;47.422;15.018;2022-07-29T02:08:16;8.25;;;8.25;;
23668;SDS011;12011;47.422;15.018;2022-07-29T02:10:49;7.70;;;7.70;;
23668;SDS011;12011;47.422;15.018;2022-07-29T02:13:22;7.57;;;7.57;;
23668;SDS011;12011;47.422;15.018;2022-07-29T02:15:57;7.84;;;7.84;;
23668;SDS011;12011;47.422;15.018;2022-07-29T02:18:30;7.62;;;7.62;;
23668;SDS011;12011;47.422;15.018;2022-07-29T02:21:02;7.36;;;7.36;;
23668;SDS011;12011;47.422;15.018;2022-07-29T02:23:33;7.66;;;7.66;;
23668;SDS011;12011;47.422;15.018;2022-07-29T02:26:06;7.62;;;7.62;;
23668;SDS011;12011;47.422;15.018;2022-07-29T02:28:38;7.63;;;7.63;;
23668;SDS011;12011;47.422;15.018;2022-07-29T02:31:12;7.65;;;7.65;;
23668;SDS011;12011;47.422;15.018;2022-07-29T02:33:45;7.96;;;7.96;;
23668;SDS011;12011;47.422;15.018;2022-07-29T02:36:16;7.18;;;7.18;;
23668;SDS011;12011;47.422;15.018;2022-07-29T02:38:48;6.96;;;6.96;;
23668;SDS011;12011;47.422;15.018;2022-07-29T02:41:23;7.25;;;7.25;;
23668;SDS011;12011;47.422;15.018;2022-07-29T02:43:58;6.93;;;6.93;;
23668;SDS011;12011;47.422;15.018;2022-07-29T02:46:41;6.99;;;6.99;;
23668;SDS011;12011;47.422;15.018;2022-07-29T02:49:25;7.02;;;7.02;;
23668;SDS011;12011;47.422;15.018;2022-07-29T02:52:06;7.19;;;7.19;;
23668;SDS011;12011;47.422;15.018;2022-07-29T02:54:42;7.37;;;7.37;;
23668;SDS011;12011;47.422;15.018;2022-07-29T02:57:20;7.16;;;7.16;;
23668;SDS011;12011;47.422;15.018;2022-07-29T02:59:59;7.02;;;7.02;;
23668;SDS011;12011;47.422;15.018;2022-07-29T03:02:37;6.97;;;6.97;;
23668;SDS011;12011;47.422;15.018;2022-07-29T03:05:11;7.17;;;7.17;;
23668;SDS011;12011;47.422;15.018;2022-07-29T03:07:49;7.00;;;7.00;;
23668;SDS011;12011;47.422;15.018;2022-07-29T03:10:23;7.14;;;7.14;;
23668;SDS011;12011;47.422;15.018;2022-07-29T03:12:55;7.32;;;7.32;;
23668;SDS011;12011;47.422;15.018;2022-07-29T03:15:26;7.80;;;7.80;;
23668;SDS011;12011;47.422;15.018;2022-07-29T03:17:59;7.66;;;7.66;;
23668;SDS011;12011;47.422;15.018;2022-07-29T03:20:29;7.67;;;7.67;;
23668;SDS011;12011;47.422;15.018;2022-07-29T03:22:59;7.21;;;7.21;;
23668;SDS011;12011;47.422;15.018;2022-07-29T03:25:28;7.31;;;7.31;;
23668;SDS011;12011;47.422;15.018;2022-07-29T03:27:58;7.07;;;7.07;;
23668;SDS011;12011;47.422;15.018;2022-07-29T03:30:29;7.47;;;7.47;;
23668;SDS011;12011;47.422;15.018;2022-07-29T03:33:01;7.28;;;7.28;;
23668;SDS011;12011;47.422;15.018;2022-07-29T03:35:31;7.25;;;7.25;;
23668;SDS011;12011;47.422;15.018;2022-07-29T03:38:00;7.57;;;7.57;;
23668;SDS011;12011;47.422;15.018;2022-07-29T03:40:30;7.60;;;7.60;;
23668;SDS011;12011;47.422;15.018;2022-07-29T03:43:07;7.57;;;7.57;;
23668;SDS011;12011;47.422;15.018;2022-07-29T03:45:39;7.64;;;7.64;;
23668;SDS011;12011;47.422;15.018;2022-07-29T03:48:19;7.78;;;7.78;;
23668;SDS011;12011;47.422;15.018;2022-07-29T03:50:52;7.59;;;7.59;;
23668;SDS011;12011;47.422;15.018;2022-07-29T03:53:21;7.96;;;7.96;;
23668;SDS011;12011;47.422;15.018;2022-07-29T03:55:56;7.53;;;7.53;;
23668;SDS011;12011;47.422;15.018;2022-07-29T03:58:28;7.87;;;7.87;;
23668;SDS011;12011;47.422;15.018;2022-07-29T04:01:00;7.95;;;7.95;;
23668;SDS011;12011;47.422;15.018;2022-07-29T04:03:32;8.02;;;8.02;;
23668;SDS011;12011;47.422;15.018;2022-07-29T04:06:03;7.82;;;7.82;;
23668;SDS011;12011;47.422;15.018;2022-07-29T04:08:35;7.97;;;7.97;;
23668;SDS011;12011;47.422;15.018;2022-07-29T04:11:04;7.80;;;7.80;;
23668;SDS011;12011;47.422;15.018;2022-07-29T04:13:35;7.78;;;7.78;;
23668;SDS011;12011;47.422;15.018;2022-07-29T04:16:05;8.07;;;8.07;;
23668;SDS011;12011;47.422;15.018;2022-07-29T04:18:37;7.94;;;7.94;;
23668;SDS011;12011;47.422;15.018;2022-07-29T04:21:06;7.66;;;7.66;;
23668;SDS011;12011;47.422;15.018;2022-07-29T04:23:36;7.76;;;7.76;;
23668;SDS011;12011;47.422;15.018;2022-07-29T04:26:06;8.60;;;8.60;;
23668;SDS011;12011;47.422;15.018;2022-07-29T04:28:36;8.49;;;8.49;;
23668;SDS011;12011;47.422;15.018;2022-07-29T04:31:07;8.24;;;8.24;;
23668;SDS011;12011;47.422;15.018;2022-07-29T04:33:40;7.75;;;7.75;;
23668;SDS011;12011;47.422;15.018;2022-07-29T04:36:09;8.44;;;8.44;;
23668;SDS011;12011;47.422;15.018;2022-07-29T04:38:39;8.76;;;8.76;;
23668;SDS011;12011;47.422;15.018;2022-07-29T04:41:09;8.89;;;8.89;;
23668;SDS011;12011;47.422;15.018;2022-07-29T04:43:38;8.57;;;8.57;;
23668;SDS011;12011;47.422;15.018;2022-07-29T04:46:08;8.71;;;8.71;;
23668;SDS011;12011;47.422;15.018;2022-07-29T04:48:40;8.98;;;8.98;;
23668;SDS011;12011;47.422;15.018;2022-07-29T04:51:10;8.90;;;8.90;;
23668;SDS011;12011;47.422;15.018;2022-07-29T04:53:39;8.55;;;8.55;;
23668;SDS011;12011;47.422;15.018;2022-07-29T04:56:09;8.41;;;8.41;;
23668;SDS011;12011;47.422;15.018;2022-07-29T04:58:38;9.11;;;9.11;;
23668;SDS011;12011;47.422;15.018;2022-07-29T05:01:08;8.81;;;8.81;;
23668;SDS011;12011;47.422;15.018;2022-07-29T05:03:40;8.53;;;8.53;;
23668;SDS011;12011;47.422;15.018;2022-07-29T05:06:10;8.83;;;8.83;;
23668;SDS011;12011;47.422;15.018;2022-07-29T05:08:40;8.62;;;8.62;;
23668;SDS011;12011;47.422;15.018;2022-07-29T05:11:09;8.93;;;8.93;;
23668;SDS011;12011;47.422;15.018;2022-07-29T05:13:39;9.08;;;9.08;;
23668;SDS011;12011;47.422;15.018;2022-07-29T05:16:09;9.03;;;9.03;;
23668;SDS011;12011;47.422;15.018;2022-07-29T05:18:41;9.47;;;9.47;;
23668;SDS011;12011;47.422;15.018;2022-07-29T05:21:11;9.08;;;9.08;;
23668;SDS011;12011;47.422;15.018;2022-07-29T05:23:40;9.10;;;9.10;;
23668;SDS011;12011;47.422;15.018;2022-07-29T05:26:10;8.67;;;8.67;;
23668;SDS011;12011;47.422;15.018;2022-07-29T05:28:40;8.58;;;8.58;;
23668;SDS011;12011;47.422;15.018;2022-07-29T05:31:09;8.63;;;8.63;;
23668;SDS011;12011;47.422;15.018;2022-07-29T05:33:42;8.54;;;8.54;;
23668;SDS011;12011;47.422;15.018;2022-07-29T05:36:12;8.92;;;8.92;;
23668;SDS011;12011;47.422;15.018;2022-07-29T05:38:41;8.65;;;8.65;;
23668;SDS011;12011;47.422;15.018;2022-07-29T05:41:11;8.99;;;8.99;;
23668;SDS011;12011;47.422;15.018;2022-07-29T05:43:40;9.51;;;9.51;;
23668;SDS011;12011;47.422;15.018;2022-07-29T05:46:10;9.76;;;9.76;;
23668;SDS011;12011;47.422;15.018;2022-07-29T05:48:42;8.90;;;8.90;;
23668;SDS011;12011;47.422;15.018;2022-07-29T05:51:12;8.49;;;8.49;;
23668;SDS011;12011;47.422;15.018;2022-07-29T05:53:41;9.00;;;9.00;;
23668;SDS011;12011;47.422;15.018;2022-07-29T05:56:11;9.21;;;9.21;;
23668;SDS011;12011;47.422;15.018;2022-07-29T05:58:40;8.92;;;8.92;;
23668;SDS011;12011;47.422;15.018;2022-07-29T06:01:10;8.92;;;8.92;;
23668;SDS011;12011;47.422;15.018;2022-07-29T06:03:42;9.02;;;9.02;;
23668;SDS011;12011;47.422;15.018;2022-07-29T06:06:12;8.96;;;8.96;;
23668;SDS011;12011;47.422;15.018;2022-07-29T06:08:42;9.26;;;9.26;;
23668;SDS011;12011;47.422;15.018;2022-07-29T06:11:11;9.31;;;9.31;;
23668;SDS011;12011;47.422;15.018;2022-07-29T06:13:41;9.39;;;9.39;;
23668;SDS011;12011;47.422;15.018;2022-07-29T06:16:10;9.04;;;9.04;;
23668;SDS011;12011;47.422;15.018;2022-07-29T06:18:40;8.91;;;8.91;;
23668;SDS011;12011;47.422;15.018;2022-07-29T06:21:12;9.30;;;9.30;;
23668;SDS011;12011;47.422;15.018;2022-07-29T06:23:42;9.25;;;9.25;;
23668;SDS011;12011;47.422;15.018;2022-07-29T06:26:13;19.79;;;19.79;;
23668;SDS011;12011;47.422;15.018;2022-07-29T06:28:43;22.65;;;22.65;;
23668;SDS011;12011;47.422;15.018;2022-07-29T06:31:12;25.42;;;25.42;;
23668;SDS011;12011;47.422;15.018;2022-07-29T06:33:45;27.76;;;27.76;;
23668;SDS011;12011;47.422;15.018;2022-07-29T06:36:14;25.37;;;25.36;;
23668;SDS011;12011;47.422;15.018;2022-07-29T06:38:44;24.63;;;24.63;;
23668;SDS011;12011;47.422;15.018;2022-07-29T06:41:13;23.10;;;23.10;;
23668;SDS011;12011;47.422;15.018;2022-07-29T06:43:44;23.65;;;23.64;;
23668;SDS011;12011;47.422;15.018;2022-07-29T06:46:17;18.95;;;18.95;;
23668;SDS011;12011;47.422;15.018;2022-07-29T06:48:50;14.59;;;14.59;;
23668;SDS011;12011;47.422;15.018;2022-07-29T06:51:20;12.91;;;12.91;;
23668;SDS011;12011;47.422;15.018;2022-07-29T06:53:51;13.73;;;13.73;;
23668;SDS011;12011;47.422;15.018;2022-07-29T06:56:22;12.32;;;12.32;;
23668;SDS011;12011;47.422;15.018;2022-07-29T06:58:52;12.01;;;12.01;;
23668;SDS011;12011;47.422;15.018;2022-07-29T07:01:22;12.73;;;12.73;;
23668;SDS011;12011;47.422;15.018;2022-07-29T07:03:54;12.75;;;12.75;;
23668;SDS011;12011;47.422;15.018;2022-07-29T07:06:24;12.83;;;12.83;;
23668;SDS011;12011;47.422;15.018;2022-07-29T07:08:54;11.92;;;11.92;;
23668;SDS011;12011;47.422;15.018;2022-07-29T07:11:23;10.98;;;10.98;;
23668;SDS011;12011;47.422;15.018;2022-07-29T07:13:53;11.04;;;11.04;;
23668;SDS011;12011;47.422;15.018;2022-07-29T07:16:22;10.75;;;10.75;;
23668;SDS011;12011;47.422;15.018;2022-07-29T07:18:55;10.77;;;10.77;;
23668;SDS011;12011;47.422;15.018;2022-07-29T07:21:24;10.49;;;10.49;;
23668;SDS011;12011;47.422;15.018;2022-07-29T07:23:54;10.24;;;10.24;;
23668;SDS011;12011;47.422;15.018;2022-07-29T07:26:24;10.19;;;10.19;;
23668;SDS011;12011;47.422;15.018;2022-07-29T07:28:54;10.08;;;10.08;;
23668;SDS011;12011;47.422;15.018;2022-07-29T07:31:25;9.78;;;9.78;;
23668;SDS011;12011;47.422;15.018;2022-07-29T07:33:58;9.59;;;9.59;;
23668;SDS011;12011;47.422;15.018;2022-07-29T07:36:27;9.39;;;9.39;;
23668;SDS011;12011;47.422;15.018;2022-07-29T07:38:57;9.88;;;9.88;;
23668;SDS011;12011;47.422;15.018;2022-07-29T07:41:27;9.96;;;9.96;;
23668;SDS011;12011;47.422;15.018;2022-07-29T07:43:57;9.59;;;9.59;;
23668;SDS011;12011;47.422;15.018;2022-07-29T07:46:27;9.77;;;9.77;;
23668;SDS011;12011;47.422;15.018;2022-07-29T07:48:59;8.94;;;8.94;;
23668;SDS011;12011;47.422;15.018;2022-07-29T07:51:29;9.27;;;9.27;;
23668;SDS011;12011;47.422;15.018;2022-07-29T07:53:58;8.99;;;8.99;;
23668;SDS011;12011;47.422;15.018;2022-07-29T07:56:28;8.77;;;8.77;;
23668;SDS011;12011;47.422;15.018;2022-07-29T07:58:58;8.67;;;8.67;;
23668;SDS011;12011;47.422;15.018;2022-07-29T08:01:27;8.75;;;8.75;;
23668;SDS011;12011;47.422;15.018;2022-07-29T08:04:00;8.47;;;8.47;;
23668;SDS011;12011;47.422;15.018;2022-07-29T08:06:29;8.27;;;8.27;;
23668;SDS011;12011;47.422;15.018;2022-07-29T08:09:00;8.29;;;8.29;;
23668;SDS011;12011;47.422;15.018;2022-07-29T08:11:30;7.98;;;7.98;;
23668;SDS011;12011;47.422;15.018;2022-07-29T08:13:59;8.20;;;8.20;;
23668;SDS011;12011;47.422;15.018;2022-07-29T08:16:29;7.99;;;7.99;;
23668;SDS011;12011;47.422;15.018;2022-07-29T08:19:01;7.73;;;7.73;;
23668;SDS011;12011;47.422;15.018;2022-07-29T08:21:31;7.93;;;7.93;;
23668;SDS011;12011;47.422;15.018;2022-07-29T08:24:01;7.46;;;7.46;;
23668;SDS011;12011;47.422;15.018;2022-07-29T08:26:43;7.38;;;7.38;;
23668;SDS011;12011;47.422;15.018;2022-07-29T08:29:13;7.70;;;7.70;;
23668;SDS011;12011;47.422;15.018;2022-07-29T08:31:43;7.79;;;7.79;;
23668;SDS011;12011;47.422;15.018;2022-07-29T08:34:16;7.92;;;7.92;;
23668;SDS011;12011;47.422;15.018;2022-07-29T08:36:46;7.83;;;7.83;;
23668;SDS011;12011;47.422;15.018;2022-07-29T08:39:16;7.76;;;7.76;;
23668;SDS011;12011;47.422;15.018;2022-07-29T08:41:45;7.25;;;7.25;;
23668;SDS011;12011;47.422;15.018;2022-07-29T08:44:16;7.58;;;7.58;;
23668;SDS011;12011;47.422;15.018;2022-07-29T08:46:47;7.79;;;7.79;;
23668;SDS011;12011;47.422;15.018;2022-07-29T08:49:20;7.82;;;7.82;;
23668;SDS011;12011;47.422;15.018;2022-07-29T08:51:51;7.60;;;7.60;;
23668;SDS011;12011;47.422;15.018;2022-07-29T08:54:24;7.69;;;7.69;;
23668;SDS011;12011;47.422;15.018;2022-07-29T08:56:55;7.22;;;7.22;;
23668;SDS011;12011;47.422;15.018;2022-07-29T08:59:27;7.37;;;7.37;;
23668;SDS011;12011;47.422;15.018;2022-07-29T09:01:58;7.47;;;7.47;;
23668;SDS011;12011;47.422;15.018;2022-07-29T09:04:33;7.50;;;7.50;;
23668;SDS011;12011;47.422;15.018;2022-07-29T09:07:04;7.22;;;7.22;;
23668;SDS011;12011;47.422;15.018;2022-07-29T09:09:35;7.26;;;7.26;;
23668;SDS011;12011;47.422;15.018;2022-07-29T09:12:05;7.42;;;7.42;;
23668;SDS011;12011;47.422;15.018;2022-07-29T09:14:36;6.77;;;6.77;;
23668;SDS011;12011;47.422;15.018;2022-07-29T09:17:06;7.04;;;7.04;;
23668;SDS011;12011;47.422;15.018;2022-07-29T09:19:39;7.41;;;7.41;;
23668;SDS011;12011;47.422;15.018;2022-07-29T09:22:09;7.28;;;7.28;;
23668;SDS011;12011;47.422;15.018;2022-07-29T09:24:42;6.98;;;6.98;;
23668;SDS011;12011;47.422;15.018;2022-07-29T09:27:20;7.08;;;7.08;;
23668;SDS011;12011;47.422;15.018;2022-07-29T09:29:58;7.09;;;7.09;;
23668;SDS011;12011;47.422;15.018;2022-07-29T09:32:29;7.55;;;7.55;;
23668;SDS011;12011;47.422;15.018;2022-07-29T09:37:49;7.20;;;7.20;;
23668;SDS011;12011;47.422;15.018;2022-07-29T09:40:20;7.03;;;7.03;;
23668;SDS011;12011;47.422;15.018;2022-07-29T09:42:53;7.10;;;7.10;;
23668;SDS011;12011;47.422;15.018;2022-07-29T09:45:27;7.05;;;7.05;;
23668;SDS011;12011;47.422;15.018;2022-07-29T09:48:00;7.20;;;7.20;;
23668;SDS011;12011;47.422;15.018;2022-07-29T09:50:45;7.15;;;7.15;;
23668;SDS011;12011;47.422;15.018;2022-07-29T09:53:36;6.88;;;6.88;;
23668;SDS011;12011;47.422;15.018;2022-07-29T09:56:06;6.89;;;6.89;;
23668;SDS011;12011;47.422;15.018;2022-07-29T09:58:36;7.73;;;7.73;;
23668;SDS011;12011;47.422;15.018;2022-07-29T10:01:05;7.01;;;7.01;;
23668;SDS011;12011;47.422;15.018;2022-07-29T10:03:49;7.15;;;7.15;;
23668;SDS011;12011;47.422;15.018;2022-07-29T10:06:22;6.97;;;6.97;;
23668;SDS011;12011;47.422;15.018;2022-07-29T10:08:52;6.82;;;6.82;;
23668;SDS011;12011;47.422;15.018;2022-07-29T10:11:22;6.96;;;6.96;;
23668;SDS011;12011;47.422;15.018;2022-07-29T10:13:52;7.05;;;7.05;;
23668;SDS011;12011;47.422;15.018;2022-07-29T10:16:21;6.97;;;6.97;;
23668;SDS011;12011;47.422;15.018;2022-07-29T10:18:58;7.11;;;7.11;;
23668;SDS011;12011;47.422;15.018;2022-07-29T10:21:31;6.60;;;6.60;;
23668;SDS011;12011;47.422;15.018;2022-07-29T10:24:03;6.95;;;6.95;;
23668;SDS011;12011;47.422;15.018;2022-07-29T10:26:34;6.78;;;6.78;;
23668;SDS011;12011;47.422;15.018;2022-07-29T10:29:06;6.84;;;6.84;;
23668;SDS011;12011;47.422;15.018;2022-07-29T10:31:38;6.65;;;6.65;;
23668;SDS011;12011;47.422;15.018;2022-07-29T10:34:21;6.83;;;6.83;;
23668;SDS011;12011;47.422;15.018;2022-07-29T10:37:11;6.39;;;6.39;;
23668;SDS011;12011;47.422;15.018;2022-07-29T10:39:58;6.76;;;6.76;;
23668;SDS011;12011;47.422;15.018;2022-07-29T10:42:55;6.74;;;6.74;;
23668;SDS011;12011;47.422;15.018;2022-07-29T10:45:38;6.75;;;6.75;;
23668;SDS011;12011;47.422;15.018;2022-07-29T10:48:08;14.75;;;14.75;;
23668;SDS011;12011;47.422;15.018;2022-07-29T10:56:25;44.62;;;40.76;;
23668;SDS011;12011;47.422;15.018;2022-07-29T11:01:56;45.67;;;40.46;;
23668;SDS011;12011;47.422;15.018;2022-07-29T11:07:29;40.81;;;36.64;;
23668;SDS011;12011;47.422;15.018;2022-07-29T11:12:55;32.99;;;30.22;;
23668;SDS011;12011;47.422;15.018;2022-07-29T11:15:25;27.92;;;26.24;;
23668;SDS011;12011;47.422;15.018;2022-07-29T11:18:05;26.90;;;25.53;;
23668;SDS011;12011;47.422;15.018;2022-07-29T11:20:38;27.22;;;25.68;;
23668;SDS011;12011;47.422;15.018;2022-07-29T11:23:17;27.09;;;25.11;;
23668;SDS011;12011;47.422;15.018;2022-07-29T11:29:00;26.03;;;24.53;;
23668;SDS011;12011;47.422;15.018;2022-07-29T11:31:38;25.21;;;23.65;;
23668;SDS011;12011;47.422;15.018;2022-07-29T11:34:24;22.44;;;21.30;;
23668;SDS011;12011;47.422;15.018;2022-07-29T11:42:50;19.71;;;19.03;;
23668;SDS011;12011;47.422;15.018;2022-07-29T11:45:21;19.31;;;18.82;;
23668;SDS011;12011;47.422;15.018;2022-07-29T11:47:55;17.54;;;17.20;;
23668;SDS011;12011;47.422;15.018;2022-07-29T11:50:28;18.36;;;18.02;;
23668;SDS011;12011;47.422;15.018;2022-07-29T11:53:10;17.86;;;17.37;;
23668;SDS011;12011;47.422;15.018;2022-07-29T11:55:41;17.60;;;17.19;;
23668;SDS011;12011;47.422;15.018;2022-07-29T11:58:14;16.67;;;16.22;;
23668;SDS011;12011;47.422;15.018;2022-07-29T12:00:50;17.15;;;16.69;;
23668;SDS011;12011;47.422;15.018;2022-07-29T12:03:23;16.57;;;16.38;;
23668;SDS011;12011;47.422;15.018;2022-07-29T12:05:56;16.03;;;15.76;;
23668;SDS011;12011;47.422;15.018;2022-07-29T12:08:26;15.76;;;15.69;;
23668;SDS011;12011;47.422;15.018;2022-07-29T12:10:55;14.79;;;14.72;;
23668;SDS011;12011;47.422;15.018;2022-07-29T12:13:28;14.47;;;14.41;;
23668;SDS011;12011;47.422;15.018;2022-07-29T12:16:07;15.03;;;14.83;;
23668;SDS011;12011;47.422;15.018;2022-07-29T12:18:37;14.63;;;14.55;;
23668;SDS011;12011;47.422;15.018;2022-07-29T12:21:07;14.55;;;14.36;;
23668;SDS011;12011;47.422;15.018;2022-07-29T12:23:37;14.36;;;14.35;;
23668;SDS011;12011;47.422;15.018;2022-07-29T12:26:07;13.49;;;13.49;;
23668;SDS011;12011;47.422;15.018;2022-07-29T12:28:39;13.71;;;13.71;;
23668;SDS011;12011;47.422;15.018;2022-07-29T12:31:12;13.80;;;13.75;;
23668;SDS011;12011;47.422;15.018;2022-07-29T12:33:44;12.94;;;12.94;;
23668;SDS011;12011;47.422;15.018;2022-07-29T12:36:21;13.14;;;13.14;;
23668;SDS011;12011;47.422;15.018;2022-07-29T12:38:51;13.09;;;13.07;;
23668;SDS011;12011;47.422;15.018;2022-07-29T12:41:21;12.81;;;12.79;;
23668;SDS011;12011;47.422;15.018;2022-07-29T12:43:54;11.56;;;11.55;;
23668;SDS011;12011;47.422;15.018;2022-07-29T12:46:25;11.79;;;11.79;;
23668;SDS011;12011;47.422;15.018;2022-07-29T12:48:54;12.32;;;12.31;;
23668;SDS011;12011;47.422;15.018;2022-07-29T12:51:28;11.98;;;11.97;;
23668;SDS011;12011;47.422;15.018;2022-07-29T12:54:02;11.71;;;11.70;;
23668;SDS011;12011;47.422;15.018;2022-07-29T12:56:35;11.21;;;11.21;;
23668;SDS011;12011;47.422;15.018;2022-07-29T12:59:16;10.90;;;10.90;;
23668;SDS011;12011;47.422;15.018;2022-07-29T13:01:49;10.69;;;10.69;;
23668;SDS011;12011;47.422;15.018;2022-07-29T13:04:24;10.64;;;10.64;;
23668;SDS011;12011;47.422;15.018;2022-07-29T13:06:58;10.51;;;10.51;;
23668;SDS011;12011;47.422;15.018;2022-07-29T13:09:38;10.63;;;10.63;;
23668;SDS011;12011;47.422;15.018;2022-07-29T13:12:11;10.59;;;10.59;;
23668;SDS011;12011;47.422;15.018;2022-07-29T13:14:46;10.41;;;10.41;;
23668;SDS011;12011;47.422;15.018;2022-07-29T13:17:17;10.41;;;10.41;;
23668;SDS011;12011;47.422;15.018;2022-07-29T13:19:50;9.71;;;9.71;;
23668;SDS011;12011;47.422;15.018;2022-07-29T13:22:23;9.90;;;9.90;;
23668;SDS011;12011;47.422;15.018;2022-07-29T13:24:55;9.53;;;9.53;;
23668;SDS011;12011;47.422;15.018;2022-07-29T13:27:28;9.67;;;9.67;;
23668;SDS011;12011;47.422;15.018;2022-07-29T13:30:03;9.50;;;9.50;;
23668;SDS011;12011;47.422;15.018;2022-07-29T13:32:36;9.64;;;9.64;;
23668;SDS011;12011;47.422;15.018;2022-07-29T13:35:07;8.99;;;8.99;;
23668;SDS011;12011;47.422;15.018;2022-07-29T13:37:38;9.49;;;9.49;;
23668;SDS011;12011;47.422;15.018;2022-07-29T13:40:10;8.84;;;8.84;;
23668;SDS011;12011;47.422;15.018;2022-07-29T13:42:41;8.59;;;8.59;;
23668;SDS011;12011;47.422;15.018;2022-07-29T13:45:13;8.65;;;8.65;;
23668;SDS011;12011;47.422;15.018;2022-07-29T13:47:43;8.66;;;8.66;;
23668;SDS011;12011;47.422;15.018;2022-07-29T13:50:12;8.51;;;8.51;;
23668;SDS011;12011;47.422;15.018;2022-07-29T13:52:42;8.86;;;8.86;;
23668;SDS011;12011;47.422;15.018;2022-07-29T13:55:13;8.42;;;8.42;;
23668;SDS011;12011;47.422;15.018;2022-07-29T13:57:43;8.66;;;8.66;;
23668;SDS011;12011;47.422;15.018;2022-07-29T14:00:15;8.34;;;8.34;;
23668;SDS011;12011;47.422;15.018;2022-07-29T14:02:46;8.28;;;8.28;;
23668;SDS011;12011;47.422;15.018;2022-07-29T14:05:16;8.29;;;8.29;;
23668;SDS011;12011;47.422;15.018;2022-07-29T14:07:45;7.73;;;7.73;;
23668;SDS011;12011;47.422;15.018;2022-07-29T14:10:15;7.83;;;7.83;;
23668;SDS011;12011;47.422;15.018;2022-07-29T14:12:47;8.23;;;8.23;;
23668;SDS011;12011;47.422;15.018;2022-07-29T14:15:19;7.76;;;7.76;;
23668;SDS011;12011;47.422;15.018;2022-07-29T14:17:49;8.03;;;8.03;;
23668;SDS011;12011;47.422;15.018;2022-07-29T14:20:18;7.94;;;7.94;;
23668;SDS011;12011;47.422;15.018;2022-07-29T14:22:48;8.02;;;8.02;;
23668;SDS011;12011;47.422;15.018;2022-07-29T14:25:17;7.83;;;7.83;;
23668;SDS011;12011;47.422;15.018;2022-07-29T14:27:47;8.13;;;8.13;;
23668;SDS011;12011;47.422;15.018;2022-07-29T14:30:21;7.93;;;7.93;;
23668;SDS011;12011;47.422;15.018;2022-07-29T14:32:50;7.76;;;7.76;;
23668;SDS011;12011;47.422;15.018;2022-07-29T14:35:20;7.98;;;7.98;;
23668;SDS011;12011;47.422;15.018;2022-07-29T14:37:50;7.98;;;7.98;;
23668;SDS011;12011;47.422;15.018;2022-07-29T14:40:19;7.82;;;7.82;;
23668;SDS011;12011;47.422;15.018;2022-07-29T14:42:51;7.72;;;7.72;;
23668;SDS011;12011;47.422;15.018;2022-07-29T14:45:23;7.77;;;7.77;;
23668;SDS011;12011;47.422;15.018;2022-07-29T14:47:53;7.98;;;7.98;;
23668;SDS011;12011;47.422;15.018;2022-07-29T14:50:23;7.51;;;7.51;;
23668;SDS011;12011;47.422;15.018;2022-07-29T14:52:53;7.63;;;7.63;;
23668;SDS011;12011;47.422;15.018;2022-07-29T14:55:23;7.66;;;7.66;;
23668;SDS011;12011;47.422;15.018;2022-07-29T14:57:52;7.77;;;7.77;;
23668;SDS011;12011;47.422;15.018;2022-07-29T15:00:25;7.40;;;7.40;;
23668;SDS011;12011;47.422;15.018;2022-07-29T15:02:57;7.19;;;7.19;;
23668;SDS011;12011;47.422;15.018;2022-07-29T15:05:27;7.33;;;7.33;;
23668;SDS011;12011;47.422;15.018;2022-07-29T15:07:58;7.24;;;7.24;;
23668;SDS011;12011;47.422;15.018;2022-07-29T15:10:28;7.44;;;7.44;;
23668;SDS011;12011;47.422;15.018;2022-07-29T15:13:00;7.36;;;7.36;;
23668;SDS011;12011;47.422;15.018;2022-07-29T15:15:32;7.22;;;7.22;;
23668;SDS011;12011;47.422;15.018;2022-07-29T15:18:02;7.19;;;7.19;;
23668;SDS011;12011;47.422;15.018;2022-07-29T15:20:32;7.59;;;7.59;;
23668;SDS011;12011;47.422;15.018;2022-07-29T15:23:02;7.47;;;7.47;;
23668;SDS011;12011;47.422;15.018;2022-07-29T15:25:35;7.82;;;7.82;;
23668;SDS011;12011;47.422;15.018;2022-07-29T15:28:04;7.47;;;7.47;;